PHSF METAR and TAF | Updated Today

PHSF METAR

Bradshaw Army Airfield

Observation time: 9 min. ago

PHSF 052055Z AUTO 13025G33KT 9SM CLR 19/09 A3039 RMK AO2 SLP179 T01850093 55003 $

Need help? Read our tutorial on how to read METARs or read the parsed version below.

Bradshaw Army Airfield (PHSF) METAR

  • Weather conditions on Sun, 05 Feb 2023 20:55:00 +0000 (9 min. ago):
  • Present conditions: Dry
  • Clouds: Clear skies
  • Visibility: 14484 meters
  • Wind: 130 degrees at 25 knots
  • Temperature: 19 celsius
  • Dew point: 9 celsius
  • Pressure: 30.39 inHg
  • Remarks: AO2 SLP179 T01850093 55003 $


Useful to know...